KALM/ALM METAR and TAF weather

Enter ICAO airport designator
Station Type Date Time Source
KALM METAR 2021/08/04 18:55 UTC NOAA

KALM 041855Z AUTO 18007G12KT 10SM CLR 28/12 A3015 RMK AO2 LTG DSNT NE


Station Type Date Time Source
KALM Decoded METAR 2021/08/04 18:55 UTC NOAA

Alamogordo-White, NM, United States (KALM) 32-50N 105-59W
Aug 04, 2021 - 02:55 PM EDT / 2021.08.04 1855 UTC
Wind: from the S (180 degrees) at 8 MPH (7 KT) gusting to 14 MPH (12 KT):0
Visibility: 10 mile(s):0
Sky conditions: clear
Weather: Lightning observed
Temperature: 82 F (28 C)
Dew Point: 53 F (12 C)
Relative Humidity: 37%
Pressure (altimeter): 30.15 in. Hg (1020 hPa)
ob: KALM 041855Z AUTO 18007G12KT 10SM CLR 28/12 A3015 RMK AO2 LTG DSNT NE
cycle: 19

Station Type Date Time Source
KALM TAF UTC NOAA

Error!

Example: see airport list